Barnsdall, Oklahoma
Current Conditions -  °F | °C
As of 11:53 AM on Monday 26 Jan 2015 (Local Time) from KBVO Reporting Station
Clear Clear  
Wind Chill: 57°   Ceiling: Unl
Heat Index: 57°   Visibility: 10mi
Dew Point: 33°   Wind: 6mph
Humidity: 40%   Direction: NA
Pressure: 30.05"   Gusts: NA
Location:  36.56°N, 96.16°W
Report Text: KBVO 261753Z AUTO VRB05KT 10SM CLR 14/01 A3005 RMK AO2 SLP176 T01390006 10139 21050 58018
Loading
Personal Weather Stations






























Interactive Weather Map New forecast layout! Learn more

10-Day Weather Forecast

Advertisements
Track Severe Weather on mobile